PTEBM SBDB-SBPO
Flight info
| Callsign | PTEBM |
|---|---|
| Flight time | 0h 56m |
| Altitude | 23000 |
| Route | LITOK Z34 TILPO/N0483F450 |
| Aircraft | C750/M-SBDE3FGHRWXY/S |
Departure
| Time | 2026-05-04 14:45 |
|---|---|
| Airport | Bonito Airport (SBDB) |
Arrival
| Time | 2026-05-04 15:41 |
|---|---|
| Airport | Juvenal Loureiro Cardoso Airport (SBPO) |
| Time | Latitude | Longitude | Altitude | Speed | Heading |
|---|---|---|---|---|---|
| 2026-05-04 14:32 | -21.24350 | -56.45074 | 1105 ft | 0 kts | 140° |
| 2026-05-04 14:40 | -21.24356 | -56.45074 | 1097 ft | 1 kts | 193° |
| 2026-05-04 14:41 | -21.24376 | -56.45104 | 1101 ft | 8 kts | 232° |
| 2026-05-04 14:41 | -21.24406 | -56.45166 | 1102 ft | 11 kts | 252° |
| 2026-05-04 14:41 | -21.24462 | -56.45304 | 1100 ft | 11 kts | 188° |
| 2026-05-04 14:42 | -21.24667 | -56.45255 | 1098 ft | 20 kts | 166° |
| 2026-05-04 14:42 | -21.24816 | -56.45215 | 1100 ft | 22 kts | 166° |
| 2026-05-04 14:42 | -21.24960 | -56.45178 | 1100 ft | 21 kts | 166° |
| 2026-05-04 14:43 | -21.25093 | -56.45143 | 1102 ft | 19 kts | 166° |
| 2026-05-04 14:43 | -21.25215 | -56.45110 | 1103 ft | 17 kts | 166° |
| 2026-05-04 14:43 | -21.25347 | -56.45076 | 1104 ft | 22 kts | 166° |
| 2026-05-04 14:43 | -21.25493 | -56.45038 | 1101 ft | 21 kts | 166° |
| 2026-05-04 14:44 | -21.25569 | -56.45001 | 1105 ft | 10 kts | 125° |
| 2026-05-04 14:44 | -21.25591 | -56.45008 | 1100 ft | 2 kts | 304° |
| 2026-05-04 14:44 | -21.25566 | -56.45018 | 1101 ft | 4 kts | 347° |
| 2026-05-04 14:44 | -21.25565 | -56.45018 | 1101 ft | 0 kts | 347° |
| 2026-05-04 14:45 | -21.25311 | -56.45085 | 1102 ft | 96 kts | 346° |
| 2026-05-04 14:45 | -21.24402 | -56.45321 | 1248 ft | 154 kts | 348° |
| 2026-05-04 14:45 | -21.23281 | -56.45594 | 1739 ft | 175 kts | 349° |
| 2026-05-04 14:45 | -21.22073 | -56.45801 | 2562 ft | 172 kts | 3° |
| 2026-05-04 14:46 | -21.20973 | -56.45198 | 3024 ft | 202 kts | 49° |
| 2026-05-04 14:46 | -21.20572 | -56.43626 | 3515 ft | 243 kts | 86° |
| 2026-05-04 14:46 | -21.20859 | -56.41757 | 4177 ft | 267 kts | 105° |
| 2026-05-04 14:46 | -21.22038 | -56.40175 | 5112 ft | 282 kts | 142° |
| 2026-05-04 14:47 | -21.23751 | -56.39170 | 6109 ft | 287 kts | 151° |
| 2026-05-04 14:47 | -21.25586 | -56.38253 | 7012 ft | 295 kts | 153° |
| 2026-05-04 14:47 | -21.27464 | -56.37340 | 8066 ft | 297 kts | 153° |
| 2026-05-04 14:47 | -21.29335 | -56.36392 | 9220 ft | 298 kts | 153° |
| 2026-05-04 14:48 | -21.31217 | -56.35427 | 10207 ft | 302 kts | 153° |
| 2026-05-04 14:48 | -21.33185 | -56.34427 | 10622 ft | 326 kts | 154° |
| 2026-05-04 14:48 | -21.35325 | -56.33346 | 10804 ft | 354 kts | 154° |
| 2026-05-04 14:48 | -21.37616 | -56.32187 | 11242 ft | 368 kts | 154° |
| 2026-05-04 14:49 | -21.39933 | -56.31011 | 12063 ft | 369 kts | 155° |
| 2026-05-04 14:49 | -21.42270 | -56.29824 | 12775 ft | 375 kts | 155° |
| 2026-05-04 14:49 | -21.44608 | -56.28640 | 13507 ft | 379 kts | 156° |
| 2026-05-04 14:49 | -21.46999 | -56.27427 | 14244 ft | 380 kts | 155° |
| 2026-05-04 14:50 | -21.49399 | -56.26207 | 14905 ft | 384 kts | 156° |
| 2026-05-04 14:50 | -21.51831 | -56.24970 | 15505 ft | 389 kts | 156° |
| 2026-05-04 14:50 | -21.54286 | -56.23723 | 16162 ft | 392 kts | 156° |
| 2026-05-04 14:50 | -21.56764 | -56.22463 | 16820 ft | 396 kts | 156° |
| 2026-05-04 14:51 | -21.59270 | -56.21188 | 17494 ft | 401 kts | 156° |
| 2026-05-04 14:51 | -21.61804 | -56.19899 | 18170 ft | 405 kts | 156° |
| 2026-05-04 14:51 | -21.64330 | -56.18613 | 18794 ft | 409 kts | 156° |
| 2026-05-04 14:51 | -21.66913 | -56.17298 | 19454 ft | 412 kts | 157° |
| 2026-05-04 14:52 | -21.69514 | -56.15973 | 20133 ft | 416 kts | 157° |
| 2026-05-04 14:52 | -21.72137 | -56.14636 | 20811 ft | 419 kts | 157° |
| 2026-05-04 14:52 | -21.74781 | -56.13288 | 21507 ft | 422 kts | 157° |
| 2026-05-04 14:52 | -21.77444 | -56.11929 | 22187 ft | 425 kts | 158° |
| 2026-05-04 14:53 | -21.80130 | -56.10559 | 22843 ft | 429 kts | 158° |
| 2026-05-04 14:53 | -21.82872 | -56.09162 | 23050 ft | 445 kts | 158° |
| 2026-05-04 14:53 | -21.85697 | -56.07721 | 23050 ft | 453 kts | 158° |
| 2026-05-04 14:53 | -21.88522 | -56.06274 | 23051 ft | 458 kts | 158° |
| 2026-05-04 14:54 | -21.91406 | -56.04796 | 23045 ft | 460 kts | 158° |
| 2026-05-04 14:54 | -21.94295 | -56.03319 | 23056 ft | 459 kts | 158° |
| 2026-05-04 14:54 | -21.97179 | -56.01846 | 23055 ft | 459 kts | 158° |
| 2026-05-04 14:54 | -22.00060 | -56.00371 | 23055 ft | 458 kts | 158° |
| 2026-05-04 14:55 | -22.02936 | -55.98896 | 23064 ft | 458 kts | 158° |
| 2026-05-04 14:55 | -22.05809 | -55.97425 | 23063 ft | 457 kts | 158° |
| 2026-05-04 14:55 | -22.08680 | -55.95954 | 23062 ft | 457 kts | 158° |
| 2026-05-04 14:55 | -22.11511 | -55.94502 | 23063 ft | 456 kts | 158° |
| 2026-05-04 14:56 | -22.14376 | -55.93032 | 23064 ft | 456 kts | 158° |
| 2026-05-04 14:56 | -22.17241 | -55.91561 | 23064 ft | 456 kts | 158° |
| 2026-05-04 14:56 | -22.20103 | -55.90092 | 23064 ft | 455 kts | 158° |
| 2026-05-04 14:56 | -22.22964 | -55.88622 | 23072 ft | 455 kts | 158° |
| 2026-05-04 14:57 | -22.25822 | -55.87153 | 23077 ft | 455 kts | 158° |
| 2026-05-04 14:57 | -22.28671 | -55.85676 | 23076 ft | 454 kts | 157° |
| 2026-05-04 14:57 | -22.31471 | -55.84089 | 23074 ft | 454 kts | 155° |
| 2026-05-04 14:57 | -22.34266 | -55.82494 | 23075 ft | 454 kts | 155° |
| 2026-05-04 14:58 | -22.37027 | -55.80931 | 23071 ft | 454 kts | 155° |
| 2026-05-04 14:58 | -22.39827 | -55.79349 | 23072 ft | 454 kts | 155° |
| 2026-05-04 14:58 | -22.42626 | -55.77760 | 23078 ft | 454 kts | 155° |
| 2026-05-04 14:58 | -22.45422 | -55.76167 | 23078 ft | 454 kts | 155° |
| 2026-05-04 14:59 | -22.48219 | -55.74578 | 23078 ft | 454 kts | 156° |
| 2026-05-04 14:59 | -22.51016 | -55.72990 | 23162 ft | 454 kts | 156° |
| 2026-05-04 14:59 | -22.56516 | -55.69643 | 23149 ft | 455 kts | 149° |
| 2026-05-04 15:00 | -22.59129 | -55.67721 | 23150 ft | 454 kts | 149° |
| 2026-05-04 15:00 | -22.61724 | -55.65855 | 23150 ft | 454 kts | 150° |
| 2026-05-04 15:00 | -22.64363 | -55.63974 | 23147 ft | 454 kts | 150° |
| 2026-05-04 15:01 | -22.69611 | -55.60163 | 23145 ft | 454 kts | 149° |
| 2026-05-04 15:01 | -22.72239 | -55.58260 | 23126 ft | 454 kts | 150° |
| 2026-05-04 15:01 | -22.74867 | -55.56367 | 23118 ft | 454 kts | 150° |
| 2026-05-04 15:01 | -22.77493 | -55.54468 | 23108 ft | 454 kts | 150° |
| 2026-05-04 15:02 | -22.80115 | -55.52564 | 23089 ft | 454 kts | 150° |
| 2026-05-04 15:02 | -22.82736 | -55.50660 | 23079 ft | 453 kts | 150° |
| 2026-05-04 15:02 | -22.85360 | -55.48760 | 23075 ft | 453 kts | 150° |
| 2026-05-04 15:02 | -22.87947 | -55.46885 | 23080 ft | 454 kts | 150° |
| 2026-05-04 15:03 | -22.90569 | -55.44981 | 23076 ft | 453 kts | 150° |
| 2026-05-04 15:03 | -22.93188 | -55.43077 | 23082 ft | 453 kts | 150° |
| 2026-05-04 15:03 | -22.95806 | -55.41175 | 23082 ft | 453 kts | 150° |
| 2026-05-04 15:03 | -22.98426 | -55.39271 | 23083 ft | 453 kts | 150° |
| 2026-05-04 15:04 | -23.01046 | -55.37366 | 23083 ft | 453 kts | 150° |
| 2026-05-04 15:04 | -23.03661 | -55.35463 | 23087 ft | 453 kts | 150° |
| 2026-05-04 15:04 | -23.06279 | -55.33556 | 23086 ft | 453 kts | 150° |
| 2026-05-04 15:04 | -23.08897 | -55.31650 | 23086 ft | 453 kts | 150° |
| 2026-05-04 15:05 | -23.11482 | -55.29767 | 23089 ft | 453 kts | 150° |
| 2026-05-04 15:05 | -23.14100 | -55.27859 | 23089 ft | 453 kts | 150° |
| 2026-05-04 15:05 | -23.16720 | -55.25947 | 23085 ft | 454 kts | 150° |
| 2026-05-04 15:05 | -23.19336 | -55.24038 | 23085 ft | 453 kts | 150° |
| 2026-05-04 15:06 | -23.21954 | -55.22127 | 23083 ft | 453 kts | 150° |
| 2026-05-04 15:06 | -23.24571 | -55.20215 | 23083 ft | 453 kts | 150° |
| 2026-05-04 15:06 | -23.27187 | -55.18304 | 23084 ft | 453 kts | 150° |
| 2026-05-04 15:07 | -23.32384 | -55.14503 | 23087 ft | 453 kts | 150° |
| 2026-05-04 15:07 | -23.34997 | -55.12591 | 23086 ft | 453 kts | 150° |
| 2026-05-04 15:07 | -23.37614 | -55.10675 | 23090 ft | 453 kts | 150° |
| 2026-05-04 15:07 | -23.40230 | -55.08759 | 23089 ft | 453 kts | 150° |
| 2026-05-04 15:08 | -23.42843 | -55.06843 | 23089 ft | 453 kts | 150° |
| 2026-05-04 15:08 | -23.45456 | -55.04928 | 23089 ft | 453 kts | 150° |
| 2026-05-04 15:08 | -23.48073 | -55.03008 | 23089 ft | 453 kts | 150° |
| 2026-05-04 15:08 | -23.50685 | -55.01090 | 23089 ft | 453 kts | 150° |
| 2026-05-04 15:09 | -23.53298 | -54.99172 | 23088 ft | 453 kts | 150° |
| 2026-05-04 15:09 | -23.55912 | -54.97252 | 23089 ft | 453 kts | 150° |
| 2026-05-04 15:09 | -23.58488 | -54.95359 | 23091 ft | 453 kts | 150° |
| 2026-05-04 15:10 | -23.63710 | -54.91517 | 23089 ft | 453 kts | 150° |
| 2026-05-04 15:10 | -23.66322 | -54.89594 | 23089 ft | 453 kts | 150° |
| 2026-05-04 15:10 | -23.71546 | -54.85746 | 23091 ft | 453 kts | 150° |
| 2026-05-04 15:11 | -23.74160 | -54.83819 | 23093 ft | 454 kts | 150° |
| 2026-05-04 15:11 | -23.76775 | -54.81890 | 23096 ft | 454 kts | 150° |
| 2026-05-04 15:11 | -23.79391 | -54.79960 | 23095 ft | 454 kts | 150° |
| 2026-05-04 15:11 | -23.82003 | -54.78032 | 23096 ft | 454 kts | 150° |
| 2026-05-04 15:12 | -23.84583 | -54.76127 | 23099 ft | 454 kts | 150° |
| 2026-05-04 15:12 | -23.87198 | -54.74194 | 23099 ft | 454 kts | 150° |
| 2026-05-04 15:12 | -23.89811 | -54.72261 | 23100 ft | 454 kts | 150° |
| 2026-05-04 15:12 | -23.92428 | -54.70326 | 23098 ft | 454 kts | 150° |
| 2026-05-04 15:13 | -23.95043 | -54.68391 | 23099 ft | 454 kts | 150° |
| 2026-05-04 15:13 | -23.97655 | -54.66457 | 23099 ft | 454 kts | 150° |
| 2026-05-04 15:13 | -24.00270 | -54.64520 | 23101 ft | 454 kts | 150° |
| 2026-05-04 15:13 | -24.02882 | -54.62583 | 23117 ft | 454 kts | 150° |
| 2026-05-04 15:14 | -24.05498 | -54.60644 | 23102 ft | 454 kts | 150° |
| 2026-05-04 15:14 | -24.08114 | -54.58702 | 23101 ft | 454 kts | 150° |
| 2026-05-04 15:14 | -24.10694 | -54.56787 | 23090 ft | 454 kts | 150° |
| 2026-05-04 15:14 | -24.13308 | -54.54845 | 23107 ft | 454 kts | 150° |
| 2026-05-04 15:15 | -24.15924 | -54.52902 | 23088 ft | 454 kts | 150° |
| 2026-05-04 15:15 | -24.18535 | -54.50961 | 23088 ft | 454 kts | 150° |
| 2026-05-04 15:15 | -24.21151 | -54.49014 | 23104 ft | 454 kts | 150° |
| 2026-05-04 15:16 | -24.26379 | -54.45123 | 23107 ft | 454 kts | 150° |
| 2026-05-04 15:16 | -24.28990 | -54.43179 | 23108 ft | 454 kts | 150° |
| 2026-05-04 15:16 | -24.34185 | -54.39305 | 23108 ft | 455 kts | 150° |
| 2026-05-04 15:17 | -24.36802 | -54.37353 | 23103 ft | 455 kts | 150° |
| 2026-05-04 15:17 | -24.42033 | -54.33447 | 23105 ft | 455 kts | 150° |
| 2026-05-04 15:17 | -24.44649 | -54.31492 | 23105 ft | 455 kts | 150° |
| 2026-05-04 15:18 | -24.47264 | -54.29537 | 23100 ft | 455 kts | 150° |
| 2026-05-04 15:18 | -24.49881 | -54.27580 | 23100 ft | 455 kts | 150° |
| 2026-05-04 15:18 | -24.52499 | -54.25620 | 23099 ft | 455 kts | 150° |
| 2026-05-04 15:19 | -24.57698 | -54.21727 | 23106 ft | 455 kts | 150° |
| 2026-05-04 15:19 | -24.60316 | -54.19765 | 23106 ft | 455 kts | 150° |
| 2026-05-04 15:19 | -24.65547 | -54.15841 | 23103 ft | 455 kts | 150° |
| 2026-05-04 15:20 | -24.68164 | -54.13876 | 23104 ft | 456 kts | 150° |
| 2026-05-04 15:20 | -24.70784 | -54.11909 | 23105 ft | 456 kts | 150° |
| 2026-05-04 15:20 | -24.73400 | -54.09942 | 23105 ft | 456 kts | 150° |
| 2026-05-04 15:20 | -24.76018 | -54.07974 | 23107 ft | 455 kts | 150° |
| 2026-05-04 15:21 | -24.78596 | -54.06035 | 23105 ft | 455 kts | 150° |
| 2026-05-04 15:21 | -24.81210 | -54.04067 | 23114 ft | 455 kts | 149° |
| 2026-05-04 15:21 | -24.86436 | -54.00132 | 23117 ft | 455 kts | 149° |
| 2026-05-04 15:22 | -24.89048 | -53.98163 | 23112 ft | 456 kts | 149° |
| 2026-05-04 15:22 | -24.91663 | -53.96191 | 23108 ft | 456 kts | 149° |
| 2026-05-04 15:22 | -24.96887 | -53.92247 | 23104 ft | 455 kts | 149° |
| 2026-05-04 15:23 | -24.99462 | -53.90303 | 23102 ft | 455 kts | 149° |
| 2026-05-04 15:23 | -25.02069 | -53.88332 | 23106 ft | 454 kts | 149° |
| 2026-05-04 15:23 | -25.04677 | -53.86360 | 23114 ft | 454 kts | 149° |
| 2026-05-04 15:23 | -25.07280 | -53.84390 | 23118 ft | 454 kts | 149° |
| 2026-05-04 15:24 | -25.12497 | -53.80440 | 23120 ft | 455 kts | 150° |
| 2026-05-04 15:24 | -25.17713 | -53.76487 | 23124 ft | 455 kts | 150° |
| 2026-05-04 15:25 | -25.20287 | -53.74535 | 23129 ft | 455 kts | 150° |
| 2026-05-04 15:25 | -25.22894 | -53.72556 | 23115 ft | 455 kts | 150° |
| 2026-05-04 15:25 | -25.25504 | -53.70573 | 23113 ft | 455 kts | 150° |
| 2026-05-04 15:26 | -25.30727 | -53.66605 | 23103 ft | 456 kts | 150° |
| 2026-05-04 15:26 | -25.33337 | -53.64619 | 23097 ft | 456 kts | 150° |
| 2026-05-04 15:26 | -25.38529 | -53.60668 | 23094 ft | 456 kts | 150° |
| 2026-05-04 15:27 | -25.41138 | -53.58681 | 23097 ft | 456 kts | 150° |
| 2026-05-04 15:27 | -25.46362 | -53.54697 | 23098 ft | 456 kts | 150° |
| 2026-05-04 15:28 | -25.51578 | -53.50716 | 23100 ft | 456 kts | 150° |
| 2026-05-04 15:28 | -25.54191 | -53.48721 | 23027 ft | 457 kts | 150° |
| 2026-05-04 15:28 | -25.59605 | -53.44592 | 21887 ft | 487 kts | 149° |
| 2026-05-04 15:29 | -25.62336 | -53.42493 | 21288 ft | 474 kts | 149° |
| 2026-05-04 15:30 | -25.72131 | -53.34989 | 19159 ft | 393 kts | 149° |
| 2026-05-04 15:30 | -25.78605 | -53.30018 | 17724 ft | 365 kts | 149° |
| 2026-05-04 15:31 | -25.82734 | -53.26850 | 16856 ft | 362 kts | 148° |
| 2026-05-04 15:31 | -25.84801 | -53.25260 | 16414 ft | 361 kts | 148° |
| 2026-05-04 15:32 | -25.91117 | -53.20404 | 15032 ft | 381 kts | 147° |
| 2026-05-04 15:32 | -25.95434 | -53.17073 | 14099 ft | 375 kts | 147° |
| 2026-05-04 15:33 | -25.99713 | -53.13779 | 13146 ft | 374 kts | 146° |
| 2026-05-04 15:34 | -26.06064 | -53.08875 | 11765 ft | 369 kts | 147° |
| 2026-05-04 15:34 | -26.08172 | -53.07247 | 11309 ft | 368 kts | 147° |
| 2026-05-04 15:34 | -26.12312 | -53.04041 | 10418 ft | 347 kts | 147° |
| 2026-05-04 15:35 | -26.16086 | -53.01121 | 9610 ft | 319 kts | 147° |
| 2026-05-04 15:35 | -26.17867 | -52.99746 | 9225 ft | 313 kts | 147° |
| 2026-05-04 15:35 | -26.19644 | -52.98369 | 8846 ft | 310 kts | 146° |
| 2026-05-04 15:36 | -26.23158 | -52.95646 | 8090 ft | 305 kts | 146° |
| 2026-05-04 15:36 | -26.24893 | -52.94300 | 7715 ft | 303 kts | 146° |
| 2026-05-04 15:36 | -26.26596 | -52.92939 | 7333 ft | 300 kts | 142° |
| 2026-05-04 15:37 | -26.27935 | -52.91177 | 6940 ft | 297 kts | 124° |
| 2026-05-04 15:37 | -26.29083 | -52.89283 | 6602 ft | 293 kts | 123° |
| 2026-05-04 15:37 | -26.30183 | -52.87407 | 6231 ft | 284 kts | 118° |
| 2026-05-04 15:37 | -26.30688 | -52.85380 | 5819 ft | 271 kts | 88° |
| 2026-05-04 15:38 | -26.30403 | -52.83392 | 5502 ft | 249 kts | 63° |
| 2026-05-04 15:38 | -26.29570 | -52.81809 | 5248 ft | 228 kts | 48° |
| 2026-05-04 15:38 | -26.28675 | -52.80399 | 4978 ft | 217 kts | 48° |
| 2026-05-04 15:38 | -26.27839 | -52.79040 | 4687 ft | 208 kts | 49° |
| 2026-05-04 15:39 | -26.27045 | -52.77762 | 4547 ft | 194 kts | 48° |
| 2026-05-04 15:39 | -26.26337 | -52.76641 | 4358 ft | 162 kts | 48° |
| 2026-05-04 15:39 | -26.25160 | -52.74822 | 3906 ft | 132 kts | 48° |
| 2026-05-04 15:40 | -26.24643 | -52.74032 | 3743 ft | 123 kts | 48° |
| 2026-05-04 15:40 | -26.24124 | -52.73257 | 3509 ft | 125 kts | 50° |
| 2026-05-04 15:40 | -26.23636 | -52.72487 | 3319 ft | 118 kts | 52° |
| 2026-05-04 15:40 | -26.23175 | -52.71742 | 3144 ft | 115 kts | 50° |
| 2026-05-04 15:41 | -26.22716 | -52.71024 | 2964 ft | 113 kts | 51° |
| 2026-05-04 15:41 | -26.22264 | -52.70310 | 2779 ft | 112 kts | 52° |
| 2026-05-04 15:41 | -26.21835 | -52.69642 | 2689 ft | 97 kts | 56° |
| 2026-05-04 15:41 | -26.21606 | -52.69281 | 2688 ft | 15 kts | 56° |
| 2026-05-04 15:42 | -26.21595 | -52.69231 | 2688 ft | 5 kts | 134° |
| 2026-05-04 15:42 | -26.21617 | -52.69208 | 2688 ft | 3 kts | 142° |
| 2026-05-04 15:42 | -26.21627 | -52.69193 | 2689 ft | 2 kts | 112° |
| 2026-05-04 15:42 | -26.21621 | -52.69171 | 2689 ft | 6 kts | 53° |
| 2026-05-04 15:43 | -26.21605 | -52.69136 | 2689 ft | 3 kts | 97° |
| 2026-05-04 15:43 | -26.21623 | -52.69120 | 2690 ft | 6 kts | 148° |
| 2026-05-04 15:43 | -26.21652 | -52.69107 | 2690 ft | 2 kts | 202° |
| 2026-05-04 15:43 | -26.21655 | -52.69116 | 2690 ft | 1 kts | 262° |
| 2026-05-04 15:44 | -26.21649 | -52.69127 | 2690 ft | 1 kts | 299° |
| 2026-05-04 15:44 | -26.21649 | -52.69128 | 2690 ft | 0 kts | 298° |